< < Back
Terminal Aerodrome Forecast


Current Version              Previous Versions:   1  2  3  4  5  6  7  8  9  

Terminal Aerodrome Forecast

825
FTUS42 KGSP 052323
TAFHKY
TAF
KHKY 052323Z 0600/0624 33003KT P6SM SKC
     FM060600 VRB02KT P6SM SCT250
     FM061600 27004KT P6SM BKN200=

Latest METAR

747
SAUS70 KWBC 061500 RRM
MTRHKY
METAR KHKY 061453Z 30003KT 10SM CLR 00/M06 A3042 RMK AO2 SLP302
T00001056 51010


USA.gov is the U.S. government's official web portal to all federal, state and local government web resources and services.